Time;durP1;ratioP1;P1;durP2;ratioP2;P2;SDS_P1;SDS_P2;PMS_P1;PMS_P2;Temp;Humidity;BMP_temperature;BMP_pressure;BME280_temperature;BME280_humidity;BME280_pressure;Samples;Min_cycle;Max_cycle;Signal;HPM_P1;HPM_P2
2022/09/21 00:02:03;;;;;;;5.57;2.03;;;26.60;76.10;;;;;;5106918;28;20312;-90
2022/09/21 00:04:34;;;;;;;4.43;2.37;;;26.60;74.10;;;;;;5113430;28;20260;-89
2022/09/21 00:07:05;;;;;;;4.63;2.13;;;26.40;75.70;;;;;;5108547;28;20207;-92
2022/09/21 00:09:36;;;;;;;3.33;1.90;;;26.20;74.70;;;;;;5084678;28;20208;-92
2022/09/21 00:12:08;;;;;;;2.47;1.60;;;25.80;74.30;;;;;;5089042;28;20210;-92
2022/09/21 00:14:42;;;;;;;4.53;1.93;;;25.60;75.80;;;;;;5098991;28;20207;-90
2022/09/21 00:17:15;;;;;;;4.10;1.90;;;25.40;75.70;;;;;;5077382;28;20226;-91
2022/09/21 00:19:46;;;;;;;4.50;1.90;;;25.00;74.70;;;;;;5088956;28;20212;-91
2022/09/21 00:22:17;;;;;;;5.83;2.47;;;24.90;75.20;;;;;;5087048;28;20203;-91
2022/09/21 00:24:48;;;;;;;7.10;2.57;;;24.80;75.50;;;;;;5096789;28;20234;-90
2022/09/21 00:27:19;;;;;;;7.73;1.97;;;24.70;78.50;;;;;;5096932;28;20683;-91
2022/09/21 00:29:50;;;;;;;3.33;1.90;;;24.70;75.70;;;;;;5097736;28;20207;-91
2022/09/21 00:32:24;;;;;;;6.27;2.30;;;24.60;76.50;;;;;;5095680;28;20236;-89
2022/09/21 00:34:56;;;;;;;5.67;1.93;;;24.50;76.40;;;;;;5076721;28;20664;-91
2022/09/21 00:37:27;;;;;;;3.00;1.97;;;24.50;75.90;;;;;;5076741;28;20227;-90
2022/09/21 00:39:59;;;;;;;4.30;1.63;;;24.40;75.20;;;;;;5076629;28;20590;-91
2022/09/21 00:42:31;;;;;;;3.77;1.67;;;24.40;75.00;;;;;;5059335;28;20207;-91
2022/09/21 00:45:02;;;;;;;5.70;2.00;;;24.30;80.20;;;;;;5076435;28;20278;-90
2022/09/21 00:47:37;;;;;;;5.20;2.40;;;24.10;75.70;;;;;;5076432;28;20209;-90
2022/09/21 00:50:12;;;;;;;5.33;1.90;;;24.00;76.20;;;;;;5075920;28;20573;-89
2022/09/21 00:52:47;;;;;;;8.93;2.40;;;23.90;75.00;;;;;;5082433;28;20209;-90
2022/09/21 00:55:21;;;;;;;2.57;1.80;;;23.90;76.40;;;;;;5079101;28;20202;-91
2022/09/21 00:57:56;;;;;;;6.83;2.30;;;23.80;78.70;;;;;;5096974;28;20202;-91
2022/09/21 01:00:28;;;;;;;6.20;1.90;;;23.70;73.60;;;;;;5083224;28;20195;-91
2022/09/21 01:03:01;;;;;;;3.77;1.77;;;23.60;73.50;;;;;;5075922;28;20212;-91
2022/09/21 01:05:32;;;;;;;2.43;1.77;;;23.50;74.70;;;;;;5075840;28;20235;-91
2022/09/21 01:08:07;;;;;;;10.33;2.30;;;23.40;73.40;;;;;;5076690;28;20208;-91
2022/09/21 01:10:47;;;;;;;6.03;2.27;;;23.30;73.00;;;;;;5076507;28;20211;-90
2022/09/21 01:13:33;;;;;;;4.23;2.00;;;23.30;72.60;;;;;;5076171;28;20223;-91
2022/09/21 01:16:13;;;;;;;4.73;2.60;;;23.30;72.80;;;;;;5090895;28;20218;-90
2022/09/21 01:18:52;;;;;;;4.17;2.30;;;23.20;74.00;;;;;;5080210;28;20207;-90
2022/09/21 01:21:25;;;;;;;3.73;2.20;;;23.10;75.30;;;;;;5096529;28;20203;-91
2022/09/21 01:24:18;;;;;;;8.93;2.60;;;23.00;73.70;;;;;;5092530;28;20211;-89
2022/09/21 01:27:27;;;;;;;6.53;2.20;;;22.90;73.40;;;;;;5072003;28;20215;-90
2022/09/21 01:30:03;;;;;;;5.97;2.30;;;22.80;73.00;;;;;;5076423;28;20200;-91
2022/09/21 01:32:39;;;;;;;5.97;2.73;;;22.60;75.30;;;;;;5097258;28;20838;-90
2022/09/21 01:35:14;;;;;;;5.60;2.30;;;22.50;76.40;;;;;;5104478;28;20285;-90
2022/09/21 01:37:48;;;;;;;5.30;2.27;;;22.30;76.30;;;;;;5107048;28;20198;-90
2022/09/21 01:40:24;;;;;;;5.93;2.30;;;22.30;74.20;;;;;;5101243;28;20267;-90
2022/09/21 01:42:56;;;;;;;5.93;2.63;;;22.20;76.30;;;;;;5073220;28;20196;-89
2022/09/21 01:45:32;;;;;;;4.40;2.20;;;22.10;75.50;;;;;;5089901;28;20232;-90
2022/09/21 01:48:04;;;;;;;3.27;2.17;;;22.00;76.90;;;;;;5082716;28;20207;-91
2022/09/21 01:50:38;;;;;;;4.63;2.20;;;21.90;81.40;;;;;;5076273;28;20702;-91
2022/09/21 01:53:14;;;;;;;9.50;2.50;;;21.60;78.60;;;;;;5075564;28;20207;-91
2022/09/21 01:55:49;;;;;;;8.20;2.00;;;21.50;80.60;;;;;;5075744;28;20203;-91
2022/09/21 01:58:25;;;;;;;4.90;2.33;;;21.40;79.00;;;;;;5075852;28;20222;-91
2022/09/21 02:00:59;;;;;;;5.87;2.40;;;21.30;79.40;;;;;;5075270;28;20207;-91
2022/09/21 02:03:34;;;;;;;5.33;2.20;;;21.20;79.80;;;;;;5057327;28;20216;-90
2022/09/21 02:06:07;;;;;;;3.50;1.63;;;21.20;80.70;;;;;;5075876;28;20239;-90
2022/09/21 02:08:40;;;;;;;5.57;1.70;;;21.00;81.50;;;;;;5075141;28;20203;-92
2022/09/21 02:11:12;;;;;;;3.50;2.30;;;20.90;82.20;;;;;;5058498;28;20200;-90
2022/09/21 02:13:47;;;;;;;2.90;2.10;;;20.70;84.90;;;;;;5075221;28;20211;-91
2022/09/21 02:16:35;;;;;;;4.83;1.80;;;20.60;86.20;;;;;;5061497;28;20214;-90
2022/09/21 02:19:15;;;;;;;2.90;1.90;;;20.40;85.80;;;;;;5085149;28;20212;-91
2022/09/21 02:21:58;;;;;;;2.53;1.67;;;20.20;85.40;;;;;;5073501;28;20208;-92
2022/09/21 02:24:40;;;;;;;4.17;2.10;;;20.00;86.90;;;;;;5076627;28;20203;-90
2022/09/21 02:27:21;;;;;;;4.03;2.10;;;19.80;88.00;;;;;;5076136;28;20277;-91
2022/09/21 02:29:56;;;;;;;5.07;2.03;;;19.60;88.90;;;;;;5074735;28;20211;-89
2022/09/21 02:32:37;;;;;;;7.00;2.33;;;19.50;89.10;;;;;;5092566;28;20218;-91
2022/09/21 02:35:17;;;;;;;6.97;1.90;;;19.40;90.00;;;;;;5087930;28;20671;-90
2022/09/21 02:37:55;;;;;;;7.77;2.07;;;19.20;90.10;;;;;;5086017;28;20214;-90
2022/09/21 02:40:31;;;;;;;12.83;2.20;;;19.10;90.20;;;;;;5095220;28;20206;-90
2022/09/21 02:43:10;;;;;;;11.37;2.20;;;19.10;90.30;;;;;;5099112;28;20518;-89
2022/09/21 02:45:45;;;;;;;5.33;1.90;;;19.00;90.40;;;;;;5075702;28;20238;-90
2022/09/21 02:48:21;;;;;;;9.37;2.37;;;18.90;90.40;;;;;;5074269;28;20207;-91
2022/09/21 02:50:58;;;;;;;6.30;1.90;;;18.80;91.00;;;;;;5074470;28;20540;-89
2022/09/21 02:53:32;;;;;;;2.97;1.90;;;18.80;90.80;;;;;;5069609;28;20206;-91
2022/09/21 02:56:06;;;;;;;6.63;2.30;;;18.60;91.30;;;;;;5074735;28;20211;-90
2022/09/21 02:58:40;;;;;;;5.10;1.87;;;18.50;91.90;;;;;;5074313;28;20210;-91
2022/09/21 03:01:13;;;;;;;5.33;2.00;;;18.40;90.50;;;;;;5079721;28;20543;-90
2022/09/21 03:03:47;;;;;;;7.70;2.20;;;18.30;91.30;;;;;;5093596;28;20569;-91
2022/09/21 03:06:18;;;;;;;9.03;2.20;;;18.20;91.30;;;;;;5094123;28;20984;-90
2022/09/21 03:08:49;;;;;;;4.60;2.30;;;18.10;91.70;;;;;;5088956;28;20229;-93
2022/09/21 03:11:21;;;;;;;4.67;2.77;;;18.00;92.10;;;;;;5088954;28;20215;-93
2022/09/21 03:13:52;;;;;;;8.33;2.50;;;17.90;92.70;;;;;;5092651;28;20732;-96
2022/09/21 03:16:24;;;;;;;4.73;2.40;;;17.80;93.50;;;;;;5077087;28;20215;-95
2022/09/21 03:18:57;;;;;;;3.93;2.53;;;17.80;93.90;;;;;;5064783;28;20610;-94
2022/09/21 03:21:29;;;;;;;3.20;1.80;;;17.70;94.10;;;;;;5085778;28;20218;-93
2022/09/21 03:24:00;;;;;;;6.63;2.60;;;17.60;94.80;;;;;;5085897;28;20202;-96
2022/09/21 03:26:31;;;;;;;6.37;2.47;;;17.50;95.10;;;;;;5060598;28;20984;-94
2022/09/21 03:29:03;;;;;;;4.27;2.20;;;17.50;95.20;;;;;;5075618;28;20212;-94
2022/09/21 03:31:34;;;;;;;5.07;2.53;;;17.40;95.70;;;;;;5077524;28;20203;-96
2022/09/21 03:34:10;;;;;;;3.47;2.30;;;17.40;95.70;;;;;;5080216;28;20204;-95
2022/09/21 03:36:41;;;;;;;4.80;2.67;;;17.30;95.80;;;;;;5081573;28;20205;-95
2022/09/21 03:39:12;;;;;;;5.90;2.50;;;17.30;96.20;;;;;;5087718;28;20677;-94
2022/09/21 03:41:43;;;;;;;4.00;2.23;;;17.30;96.60;;;;;;5087666;28;20204;-94
2022/09/21 03:44:16;;;;;;;3.73;2.10;;;17.20;96.50;;;;;;5080359;28;20208;-94
2022/09/21 03:46:48;;;;;;;6.40;2.00;;;17.20;96.80;;;;;;5083053;28;20238;-94
2022/09/21 03:49:22;;;;;;;3.30;1.90;;;17.10;96.90;;;;;;5093650;28;20203;-94
2022/09/21 03:51:54;;;;;;;4.10;1.93;;;17.10;96.80;;;;;;5097615;28;20676;-93
2022/09/21 03:54:26;;;;;;;6.00;2.00;;;17.00;96.90;;;;;;5090440;28;20684;-94
2022/09/21 03:56:57;;;;;;;3.00;1.70;;;17.00;97.60;;;;;;5089857;28;20202;-94
2022/09/21 03:59:28;;;;;;;4.47;1.67;;;17.00;97.50;;;;;;5084808;28;20781;-92
2022/09/21 04:02:00;;;;;;;5.00;2.13;;;17.00;96.40;;;;;;5073975;28;20249;-94
2022/09/21 04:04:33;;;;;;;4.37;1.80;;;17.10;97.60;;;;;;5089607;28;20210;-94
2022/09/21 04:07:04;;;;;;;6.83;2.00;;;17.10;97.10;;;;;;5098033;28;20715;-94
2022/09/21 04:09:35;;;;;;;4.77;1.83;;;17.10;97.70;;;;;;5081698;28;20204;-94
2022/09/21 04:12:06;;;;;;;5.33;1.80;;;17.00;97.70;;;;;;5078606;28;20233;-94
2022/09/21 04:14:37;;;;;;;5.13;1.70;;;17.00;98.20;;;;;;5089271;28;20206;-94
2022/09/21 04:17:10;;;;;;;3.80;2.00;;;16.90;98.30;;;;;;5087780;28;20306;-94
2022/09/21 04:19:44;;;;;;;4.57;1.70;;;16.90;99.10;;;;;;5077820;28;20678;-94
2022/09/21 04:22:15;;;;;;;5.03;1.60;;;16.80;99.30;;;;;;5077370;28;20210;-94
2022/09/21 04:24:46;;;;;;;3.60;1.30;;;16.70;99.00;;;;;;5097050;28;20685;-94
2022/09/21 04:27:17;;;;;;;3.10;1.77;;;16.70;99.20;;;;;;5090043;28;20238;-94
2022/09/21 04:29:49;;;;;;;7.50;1.53;;;16.70;99.90;;;;;;5079353;28;20218;-95
2022/09/21 04:32:21;;;;;;;3.17;1.90;;;16.70;99.90;;;;;;5060545;28;20280;-95
2022/09/21 04:34:54;;;;;;;3.10;1.60;;;16.60;99.90;;;;;;5077996;28;20326;-94
2022/09/21 04:37:25;;;;;;;4.17;1.60;;;16.60;99.90;;;;;;5083671;28;20208;-95
2022/09/21 04:39:57;;;;;;;4.40;1.20;;;16.50;99.90;;;;;;5076789;28;20211;-95
2022/09/21 04:42:28;;;;;;;4.83;1.60;;;16.50;99.90;;;;;;5076820;28;20207;-95
2022/09/21 04:45:00;;;;;;;4.17;1.57;;;16.40;99.90;;;;;;5077233;28;20257;-94
2022/09/21 04:47:31;;;;;;;2.87;1.50;;;16.40;99.90;;;;;;5077500;28;20653;-95
2022/09/21 04:50:06;;;;;;;3.07;1.63;;;16.30;99.90;;;;;;5063616;28;20207;-95
2022/09/21 04:52:38;;;;;;;6.10;1.73;;;16.30;99.90;;;;;;5084331;28;20194;-95
2022/09/21 04:55:10;;;;;;;3.60;1.53;;;16.30;99.90;;;;;;5097548;28;20213;-93
2022/09/21 04:57:41;;;;;;;5.77;1.53;;;16.20;99.90;;;;;;5101738;28;20217;-94
2022/09/21 05:00:13;;;;;;;2.83;1.17;;;16.10;99.90;;;;;;5099439;28;20207;-95
2022/09/21 05:02:45;;;;;;;2.73;1.40;;;16.10;99.90;;;;;;5075159;28;20659;-95
2022/09/21 05:05:18;;;;;;;4.67;1.80;;;16.00;99.90;;;;;;5096521;28;20206;-93
2022/09/21 05:07:49;;;;;;;5.30;1.80;;;16.00;99.90;;;;;;5087740;28;20715;-93
2022/09/21 05:10:19;;;;;;;5.33;1.50;;;15.90;99.90;;;;;;5115683;28;20569;-91
2022/09/21 05:12:53;;;;;;;3.33;1.60;;;15.90;99.90;;;;;;5086929;28;20221;-94
2022/09/21 05:15:24;;;;;;;5.27;1.50;;;15.80;99.90;;;;;;5078393;28;20592;-95
2022/09/21 05:17:56;;;;;;;5.10;1.27;;;15.80;99.90;;;;;;5092316;28;20232;-95
2022/09/21 05:20:33;;;;;;;7.00;1.57;;;15.70;99.90;;;;;;5103271;28;20233;-95
2022/09/21 05:23:04;;;;;;;2.87;1.37;;;15.60;99.90;;;;;;5102413;28;20227;-95
2022/09/21 05:25:36;;;;;;;2.57;1.47;;;15.60;99.90;;;;;;5115161;28;20255;-94
2022/09/21 05:28:09;;;;;;;5.00;1.13;;;15.50;99.90;;;;;;5111239;28;20241;-94
2022/09/21 05:30:40;;;;;;;5.13;1.60;;;15.50;99.90;;;;;;5099801;28;20207;-94
2022/09/21 05:33:34;;;;;;;6.60;1.60;;;15.50;99.90;;;;;;5092852;28;20195;-95
2022/09/21 05:36:22;;;;;;;3.37;1.47;;;15.40;99.90;;;;;;5080016;28;20691;-95
2022/09/21 05:38:55;;;;;;;1.83;1.23;;;15.40;99.90;;;;;;5080135;28;20223;-94
2022/09/21 05:41:26;;;;;;;1.70;1.40;;;15.40;99.90;;;;;;5078848;28;20218;-94
2022/09/21 05:43:58;;;;;;;3.33;1.73;;;15.30;99.90;;;;;;5058977;28;20549;-93
2022/09/21 05:46:39;;;;;;;4.57;1.87;;;15.20;99.90;;;;;;5085778;28;20330;-95
2022/09/21 05:49:17;;;;;;;4.63;2.70;;;15.20;99.90;;;;;;5072603;28;20211;-94
2022/09/21 05:52:00;;;;;;;6.23;1.90;;;15.20;99.90;;;;;;5075902;28;20209;-95
2022/09/21 05:54:43;;;;;;;4.33;1.73;;;15.10;99.90;;;;;;5079019;28;20218;-94
2022/09/21 05:57:21;;;;;;;2.97;1.70;;;15.10;99.90;;;;;;5091746;28;20221;-94
2022/09/21 06:00:09;;;;;;;4.83;1.60;;;15.00;99.90;;;;;;5096825;28;20745;-95
2022/09/21 06:03:08;;;;;;;3.93;1.40;;;15.00;99.90;;;;;;5078978;28;20222;-94
2022/09/21 06:05:46;;;;;;;3.83;1.83;;;14.90;99.90;;;;;;5095479;28;20289;-94
2022/09/21 06:08:20;;;;;;;3.27;1.50;;;14.90;99.90;;;;;;5078979;28;20227;-93
2022/09/21 06:10:53;;;;;;;1.20;1.07;;;14.80;99.90;;;;;;5079099;28;20210;-95
2022/09/21 06:13:29;;;;;;;4.87;1.30;;;14.80;99.90;;;;;;5085406;28;20198;-94
2022/09/21 06:16:04;;;;;;;5.03;1.43;;;14.70;99.90;;;;;;5092294;28;20206;-94
2022/09/21 06:18:39;;;;;;;3.60;1.43;;;14.70;99.90;;;;;;5083195;28;20562;-94
2022/09/21 06:21:13;;;;;;;3.87;1.33;;;14.60;99.90;;;;;;5094293;28;20194;-95
2022/09/21 06:23:47;;;;;;;3.93;1.27;;;14.60;99.90;;;;;;5076258;28;20211;-94
2022/09/21 06:26:19;;;;;;;4.23;1.30;;;14.50;99.90;;;;;;5075250;28;20211;-94
2022/09/21 06:28:50;;;;;;;3.33;1.50;;;14.40;99.90;;;;;;5085146;28;20262;-94
2022/09/21 06:31:21;;;;;;;4.07;1.60;;;14.40;99.90;;;;;;5096060;28;20218;-94
2022/09/21 06:33:53;;;;;;;3.93;1.30;;;14.40;99.90;;;;;;5093898;28;20208;-93
2022/09/21 06:36:24;;;;;;;4.43;1.60;;;14.30;99.90;;;;;;5080566;28;20212;-93
2022/09/21 06:38:59;;;;;;;2.70;1.50;;;14.30;99.90;;;;;;5060533;28;20536;-94
2022/09/21 06:41:30;;;;;;;3.43;1.60;;;14.30;99.90;;;;;;5080338;28;20678;-95
2022/09/21 06:44:11;;;;;;;4.33;1.67;;;14.20;99.90;;;;;;5078194;28;20215;-95
2022/09/21 06:46:52;;;;;;;3.03;1.30;;;14.20;99.90;;;;;;5078154;28;20290;-95
2022/09/21 06:49:27;;;;;;;6.20;1.50;;;14.10;99.90;;;;;;5091281;28;20207;-94
2022/09/21 06:52:03;;;;;;;8.30;1.83;;;14.10;99.90;;;;;;5095357;28;20218;-93
2022/09/21 06:54:41;;;;;;;3.20;1.33;;;14.00;99.90;;;;;;5100330;28;20191;-94
2022/09/21 06:57:12;;;;;;;4.27;1.57;;;14.00;99.90;;;;;;5088304;28;20205;-94
2022/09/21 06:59:44;;;;;;;4.70;1.83;;;13.90;99.90;;;;;;5111212;28;20202;-94
2022/09/21 07:02:15;;;;;;;4.53;1.67;;;13.90;99.90;;;;;;5098362;28;20192;-93
2022/09/21 07:04:47;;;;;;;5.83;1.40;;;13.90;99.90;;;;;;5095065;28;20266;-94
2022/09/21 07:07:18;;;;;;;7.63;2.00;;;13.80;99.90;;;;;;5081731;28;20245;-94
2022/09/21 07:09:51;;;;;;;5.60;2.07;;;13.70;99.90;;;;;;5093313;28;20547;-93
2022/09/21 07:12:48;;;;;;;5.23;1.47;;;13.70;99.90;;;;;;5094395;28;20207;-94
2022/09/21 07:15:20;;;;;;;6.17;2.00;;;13.70;99.90;;;;;;5059785;28;20226;-93
2022/09/21 07:17:54;;;;;;;4.30;2.03;;;13.60;99.90;;;;;;5076737;28;20188;-94
2022/09/21 07:20:34;;;;;;;4.33;1.80;;;13.60;99.90;;;;;;5078180;28;20195;-93
2022/09/21 07:23:14;;;;;;;3.13;1.57;;;13.60;99.90;;;;;;5085953;28;20211;-95
2022/09/21 07:25:49;;;;;;;6.10;1.50;;;13.60;99.90;;;;;;5078467;28;20260;-94
2022/09/21 07:28:21;;;;;;;3.83;1.70;;;13.50;99.90;;;;;;5094146;28;20226;-93
2022/09/21 07:30:52;;;;;;;2.13;1.30;;;13.50;99.90;;;;;;5094545;28;20768;-94
2022/09/21 07:33:24;;;;;;;2.33;1.33;;;13.50;99.90;;;;;;5077034;28;20212;-93
2022/09/21 07:35:57;;;;;;;4.67;1.37;;;13.40;99.90;;;;;;5085636;28;20199;-94
2022/09/21 07:38:29;;;;;;;8.37;1.60;;;13.40;99.90;;;;;;5074430;28;20273;-94
2022/09/21 07:41:03;;;;;;;4.70;1.57;;;13.30;99.90;;;;;;5074786;28;20227;-94
2022/09/21 07:43:34;;;;;;;2.87;1.40;;;13.30;99.90;;;;;;5076054;28;20215;-94
2022/09/21 07:46:06;;;;;;;1.97;1.27;;;13.30;99.90;;;;;;5076790;28;20610;-94
2022/09/21 07:48:37;;;;;;;2.43;1.00;;;13.30;99.90;;;;;;5060344;28;20290;-94
2022/09/21 07:51:10;;;;;;;6.07;1.30;;;13.30;99.90;;;;;;5086403;28;20222;-95
2022/09/21 07:53:43;;;;;;;3.00;1.40;;;13.30;99.90;;;;;;5076982;28;20239;-94
2022/09/21 07:56:19;;;;;;;2.83;1.20;;;13.30;99.90;;;;;;5093012;28;20208;-94
2022/09/21 07:59:07;;;;;;;3.63;1.67;;;13.30;99.90;;;;;;5094775;28;20230;-94
2022/09/21 08:01:39;;;;;;;4.43;1.33;;;13.30;99.90;;;;;;5104203;28;20187;-93
2022/09/21 08:04:13;;;;;;;3.70;1.27;;;13.20;99.90;;;;;;5113809;28;20195;-95
2022/09/21 08:06:44;;;;;;;2.80;1.50;;;13.20;99.90;;;;;;5097076;28;20217;-93
2022/09/21 08:09:15;;;;;;;4.80;1.43;;;13.20;99.90;;;;;;5102968;28;20227;-95
2022/09/21 08:11:53;;;;;;;1.87;1.70;;;13.10;99.90;;;;;;5097159;28;20214;-94
2022/09/21 08:14:24;;;;;;;3.30;1.40;;;13.10;99.90;;;;;;5102408;28;20203;-94
2022/09/21 08:16:56;;;;;;;6.47;1.70;;;13.10;99.90;;;;;;5074304;28;20287;-94
2022/09/21 08:19:27;;;;;;;8.73;1.70;;;13.10;99.90;;;;;;5089409;28;20206;-93
2022/09/21 08:21:59;;;;;;;3.00;1.50;;;13.10;99.90;;;;;;5063312;28;20210;-93
2022/09/21 08:24:30;;;;;;;4.40;1.63;;;13.00;99.90;;;;;;5079416;28;20542;-94
2022/09/21 08:27:03;;;;;;;1.53;1.30;;;13.00;99.90;;;;;;5092156;28;20213;-94
2022/09/21 08:29:35;;;;;;;2.47;1.50;;;13.00;99.90;;;;;;5099451;28;20231;-94
2022/09/21 08:32:07;;;;;;;3.43;1.47;;;13.00;99.90;;;;;;5098296;28;20203;-94
2022/09/21 08:34:38;;;;;;;2.30;1.30;;;13.00;99.90;;;;;;5099066;28;20195;-93
2022/09/21 08:37:09;;;;;;;4.43;1.50;;;12.90;99.90;;;;;;5080883;28;20210;-94
2022/09/21 08:39:40;;;;;;;3.80;1.70;;;12.90;99.90;;;;;;5098390;28;20218;-93
2022/09/21 08:42:35;;;;;;;3.93;1.60;;;12.90;99.90;;;;;;5096436;28;20209;-94
2022/09/21 08:45:12;;;;;;;4.43;1.20;;;12.80;99.90;;;;;;5078926;28;20208;-94
2022/09/21 08:47:45;;;;;;;2.17;1.40;;;12.80;99.90;;;;;;5097819;28;20207;-94
2022/09/21 08:50:29;;;;;;;3.33;1.53;;;12.70;99.90;;;;;;5100398;28;20207;-94
2022/09/21 08:53:05;;;;;;;1.77;1.30;;;12.70;99.90;;;;;;5096856;28;20209;-94
2022/09/21 08:55:36;;;;;;;3.17;1.40;;;12.70;99.90;;;;;;5095023;28;20214;-94
2022/09/21 08:58:22;;;;;;;5.67;1.33;;;12.80;99.90;;;;;;5081399;28;20226;-94
2022/09/21 09:01:06;;;;;;;2.63;1.23;;;12.70;99.90;;;;;;5106332;28;20238;-93
2022/09/21 09:03:53;;;;;;;4.47;1.40;;;12.70;99.90;;;;;;5105263;28;20344;-93
2022/09/21 09:06:33;;;;;;;4.60;1.33;;;12.70;99.90;;;;;;5081816;28;20249;-93
2022/09/21 09:09:32;;;;;;;1.90;1.30;;;12.60;99.90;;;;;;5080311;28;20238;-93
2022/09/21 09:12:14;;;;;;;4.30;1.43;;;12.60;99.90;;;;;;5100248;28;20229;-92
2022/09/21 09:15:13;;;;;;;1.80;1.10;;;12.60;99.90;;;;;;5097930;28;20290;-92
2022/09/21 09:17:55;;;;;;;4.20;1.40;;;12.60;99.90;;;;;;5083808;28;20210;-94
2022/09/21 09:20:31;;;;;;;2.60;1.20;;;12.60;99.90;;;;;;5098551;28;20202;-92
2022/09/21 09:23:10;;;;;;;2.10;1.23;;;12.50;99.90;;;;;;5082301;28;20207;-93
2022/09/21 09:25:44;;;;;;;2.13;1.37;;;12.50;99.90;;;;;;5092678;28;20206;-92
2022/09/21 09:28:27;;;;;;;2.67;1.20;;;12.50;99.90;;;;;;5097156;28;20235;-92
2022/09/21 09:31:04;;;;;;;2.57;1.10;;;12.50;99.90;;;;;;5077713;28;20203;-92
2022/09/21 09:33:49;;;;;;;1.87;1.20;;;12.40;99.90;;;;;;5090442;28;20210;-93
2022/09/21 09:36:22;;;;;;;3.53;1.00;;;12.40;99.90;;;;;;5065498;28;20230;-94
2022/09/21 09:39:15;;;;;;;2.30;1.00;;;12.40;99.90;;;;;;5082126;28;20195;-94
2022/09/21 09:42:03;;;;;;;1.30;1.20;;;12.30;99.90;;;;;;5075393;28;20234;-95
2022/09/21 09:44:53;;;;;;;3.10;1.30;;;12.20;99.90;;;;;;5083604;28;20663;-95
2022/09/21 09:47:40;;;;;;;2.67;1.17;;;12.30;99.90;;;;;;5092185;28;20204;-93
2022/09/21 09:50:19;;;;;;;7.50;1.30;;;12.30;99.90;;;;;;5078226;28;20227;-93
2022/09/21 09:52:53;;;;;;;2.73;1.07;;;12.20;99.90;;;;;;5093643;28;20211;-93
2022/09/21 09:55:29;;;;;;;2.07;1.30;;;12.20;99.90;;;;;;5096069;28;20234;-94
2022/09/21 09:58:00;;;;;;;2.87;1.40;;;12.20;99.90;;;;;;5062129;28;20548;-93
2022/09/21 10:00:31;;;;;;;3.53;1.10;;;12.20;99.90;;;;;;5091431;28;20215;-93
2022/09/21 10:03:18;;;;;;;1.67;1.10;;;12.20;99.90;;;;;;5071930;28;20559;-93
2022/09/21 10:05:50;;;;;;;2.73;1.30;;;12.10;99.90;;;;;;5074905;28;20235;-93
2022/09/21 10:08:40;;;;;;;1.90;1.40;;;12.10;99.90;;;;;;5084183;28;20760;-94
2022/09/21 10:11:13;;;;;;;2.03;1.20;;;12.10;99.90;;;;;;5094774;28;20203;-93
2022/09/21 10:13:46;;;;;;;2.27;1.10;;;12.10;99.90;;;;;;5094838;28;20214;-91
2022/09/21 10:16:22;;;;;;;8.13;1.50;;;12.00;99.90;;;;;;5101711;28;20207;-93
2022/09/21 10:19:00;;;;;;;1.67;0.90;;;12.00;99.90;;;;;;5105634;28;20258;-92
2022/09/21 10:21:37;;;;;;;2.90;1.27;;;12.00;99.90;;;;;;5067450;28;20204;-92
2022/09/21 10:24:17;;;;;;;2.83;1.03;;;11.90;99.90;;;;;;5084933;28;20207;-93
2022/09/21 10:26:53;;;;;;;3.23;1.30;;;11.90;99.90;;;;;;5091984;28;20215;-93
2022/09/21 10:29:41;;;;;;;3.47;1.20;;;11.90;99.90;;;;;;5086313;28;20226;-93
2022/09/21 10:32:24;;;;;;;4.80;1.60;;;11.90;99.90;;;;;;4735741;28;10000798;-93
2022/09/21 10:35:22;;;;;;;2.77;1.20;;;11.90;99.90;;;;;;5096653;28;20216;-93
2022/09/21 10:38:11;;;;;;;4.83;1.80;;;11.90;99.90;;;;;;5062463;28;20204;-94
2022/09/21 10:40:46;;;;;;;3.27;1.97;;;11.90;99.90;;;;;;5065192;28;20264;-92
2022/09/21 10:43:26;;;;;;;3.77;2.20;;;11.90;99.90;;;;;;5068994;28;20211;-93
2022/09/21 10:46:03;;;;;;;5.70;2.80;;;11.90;99.90;;;;;;5100266;28;20244;-93
2022/09/21 10:48:35;;;;;;;5.40;2.50;;;11.90;99.90;;;;;;5110721;28;20267;-92
2022/09/21 10:51:21;;;;;;;5.13;3.00;;;11.90;99.90;;;;;;5077496;28;20638;-93
2022/09/21 10:53:53;;;;;;;3.40;2.07;;;11.90;99.90;;;;;;5062002;28;20223;-92
2022/09/21 10:56:24;;;;;;;5.10;2.40;;;11.90;99.90;;;;;;5092171;28;20668;-92
2022/09/21 10:59:14;;;;;;;5.40;2.67;;;11.90;99.90;;;;;;5091063;28;20199;-93
2022/09/21 11:01:47;;;;;;;4.50;2.83;;;11.90;99.90;;;;;;5076546;28;20218;-93
2022/09/21 11:04:27;;;;;;;4.60;2.67;;;11.90;99.90;;;;;;5078698;28;20204;-93
2022/09/21 11:07:08;;;;;;;7.40;2.63;;;11.90;99.90;;;;;;5076701;28;20638;-92
2022/09/21 11:09:44;;;;;;;4.23;2.37;;;11.90;99.90;;;;;;5075144;28;20234;-94
2022/09/21 11:12:39;;;;;;;4.40;2.63;;;11.90;99.90;;;;;;5086918;28;20194;-93
2022/09/21 11:15:32;;;;;;;5.97;2.37;;;11.90;99.90;;;;;;5079386;28;20234;-93
2022/09/21 11:18:13;;;;;;;4.90;2.47;;;11.90;99.90;;;;;;5074983;28;20227;-94
2022/09/21 11:20:50;;;;;;;3.97;1.93;;;11.90;99.90;;;;;;5074879;28;20690;-92
2022/09/21 11:23:37;;;;;;;3.93;2.10;;;11.90;99.90;;;;;;5073793;28;20207;-93
2022/09/21 11:26:18;;;;;;;5.87;2.20;;;11.90;99.90;;;;;;5092103;28;20211;-94
2022/09/21 11:28:56;;;;;;;3.37;2.10;;;11.90;99.90;;;;;;5082281;28;20533;-93
2022/09/21 11:31:45;;;;;;;6.20;2.30;;;11.80;99.90;;;;;;5079351;28;20211;-93
2022/09/21 11:34:35;;;;;;;3.73;2.30;;;11.80;99.90;;;;;;5075914;28;20217;-94
2022/09/21 11:37:17;;;;;;;5.00;2.57;;;11.70;99.90;;;;;;5081711;28;20219;-92
2022/09/21 11:40:05;;;;;;;4.77;2.50;;;11.60;99.90;;;;;;5088775;28;20264;-93
2022/09/21 11:42:49;;;;;;;5.90;2.53;;;11.60;99.90;;;;;;5076606;28;20202;-93
2022/09/21 11:45:48;;;;;;;4.43;2.93;;;11.50;99.90;;;;;;5095272;28;20214;-94
2022/09/21 11:48:30;;;;;;;6.63;3.00;;;11.50;99.90;;;;;;5079474;28;20212;-92
2022/09/21 11:51:14;;;;;;;4.00;2.90;;;11.50;99.90;;;;;;5081928;28;20238;-94
2022/09/21 11:54:03;;;;;;;5.03;3.33;;;11.40;99.90;;;;;;5076034;28;20214;-94
2022/09/21 11:56:55;;;;;;;3.60;3.10;;;11.40;99.90;;;;;;5091264;28;20211;-92
2022/09/21 11:59:45;;;;;;;4.60;3.43;;;11.40;99.90;;;;;;5078743;28;20195;-93
2022/09/21 12:02:59;;;;;;;6.50;3.80;;;11.30;99.90;;;;;;5080853;28;20219;-94
2022/09/21 12:05:37;;;;;;;4.57;3.40;;;11.30;99.90;;;;;;5057056;28;20204;-94
2022/09/21 12:08:38;;;;;;;5.37;3.87;;;11.30;99.90;;;;;;5080711;28;20242;-94
2022/09/21 12:11:17;;;;;;;9.63;4.23;;;11.30;99.90;;;;;;5076382;28;20235;-93
2022/09/21 12:14:00;;;;;;;5.60;3.70;;;11.30;99.90;;;;;;5088494;28;20654;-94
2022/09/21 12:16:39;;;;;;;6.10;4.57;;;11.30;99.90;;;;;;5098487;28;20219;-92
2022/09/21 12:19:19;;;;;;;8.10;4.43;;;11.30;99.90;;;;;;5078761;28;20202;-92
2022/09/21 12:21:55;;;;;;;4.77;4.00;;;11.20;99.90;;;;;;5096237;28;20549;-91
2022/09/21 12:24:31;;;;;;;8.63;4.20;;;11.20;99.90;;;;;;5089955;28;20686;-94
2022/09/21 12:27:08;;;;;;;9.07;4.43;;;11.20;99.90;;;;;;5045293;28;20659;-94
2022/09/21 12:29:46;;;;;;;7.57;4.03;;;11.10;99.90;;;;;;5078866;28;20207;-92
2022/09/21 12:32:25;;;;;;;7.50;4.50;;;11.10;99.90;;;;;;5092361;28;20199;-93
2022/09/21 12:35:01;;;;;;;5.33;4.50;;;11.10;99.90;;;;;;5086558;28;20218;-92
2022/09/21 12:37:35;;;;;;;8.00;4.27;;;11.00;99.90;;;;;;5095330;28;20251;-94
2022/09/21 12:40:16;;;;;;;7.93;4.60;;;11.00;99.90;;;;;;5115763;28;20207;-94
2022/09/21 12:42:55;;;;;;;7.00;4.23;;;10.90;99.90;;;;;;5117620;28;20198;-93
2022/09/21 12:45:33;;;;;;;7.87;3.70;;;10.90;99.90;;;;;;5098775;28;20212;-93
2022/09/21 12:48:11;;;;;;;4.20;3.43;;;10.80;99.90;;;;;;5103717;28;20214;-92
2022/09/21 12:50:49;;;;;;;5.87;4.07;;;10.80;99.90;;;;;;5097358;28;20324;-93
2022/09/21 12:53:23;;;;;;;6.03;3.93;;;10.70;99.90;;;;;;5099824;28;20210;-92
2022/09/21 12:56:00;;;;;;;6.27;4.10;;;10.70;99.90;;;;;;5099976;28;20207;-93
2022/09/21 12:58:49;;;;;;;5.47;3.30;;;10.60;99.90;;;;;;5099157;28;20215;-94
2022/09/21 13:01:32;;;;;;;8.93;3.60;;;10.50;99.90;;;;;;5097771;28;20217;-94
2022/09/21 13:04:18;;;;;;;7.13;3.90;;;10.50;99.90;;;;;;5060512;28;20210;-92
2022/09/21 13:07:21;;;;;;;5.70;3.93;;;10.50;99.90;;;;;;5091679;28;20203;-92
2022/09/21 13:09:53;;;;;;;6.00;3.97;;;10.40;99.90;;;;;;5081574;28;20615;-92
2022/09/21 13:12:31;;;;;;;5.30;3.50;;;10.40;99.90;;;;;;5078336;28;20678;-94
2022/09/21 13:15:07;;;;;;;5.43;3.80;;;10.30;99.90;;;;;;5059302;28;20215;-93
2022/09/21 13:17:41;;;;;;;6.37;3.87;;;10.30;99.90;;;;;;5076687;28;20199;-93
2022/09/21 13:20:20;;;;;;;7.63;4.13;;;10.20;99.90;;;;;;5076306;28;20222;-93
2022/09/21 13:23:01;;;;;;;7.43;4.27;;;10.20;99.90;;;;;;5059093;28;20207;-92
2022/09/21 13:25:36;;;;;;;6.67;4.50;;;10.10;99.90;;;;;;5059104;28;20990;-92
2022/09/21 13:28:20;;;;;;;6.27;4.77;;;10.10;99.90;;;;;;5077306;28;20203;-92
2022/09/21 13:31:07;;;;;;;6.27;4.60;;;10.10;99.90;;;;;;5081586;28;20256;-92
2022/09/21 13:34:33;;;;;;;5.70;4.40;;;10.10;99.90;;;;;;5082982;28;20218;-92
2022/09/21 13:37:33;;;;;;;5.43;4.70;;;9.90;99.90;;;;;;5085886;28;20198;-92